Zim Mumbai — P3BA7 — position and weather

sailwx.info

Track history (hours):
 
Tides and Currents Weather Stations Pressure Air Temp Water Temp Dewpoint Dewpoint Depression Visibility Wind Speed Wind Dir Waves Ship Positions

Zim Mumbai

Last reported at 2016-Feb-03 13:33 UTC. Time now 2016-Feb-08 14:36 UTC.
Position N 46°34' W 072°06'.

Length 195.7 m; beam 32.3 m; draft 11.5 m.

Type: Ship (hazmat cat B). MMSI: 212160000.

Date/timePositionNaut miles runAvg speedWind from/ knotsBaromVisibWave heightAir tempDewpointWater temp
2016-Feb-03 13:33N 46°34' W 072°06'1312.6
2016-Feb-03 12:33N 46°26' W 072°20'10 9.6
2016-Feb-03 11:32N 46°20' W 072°32'0 0.0
2016-Feb-03 07:32N 46°20' W 072°32'6 6.4
2016-Feb-03 06:33N 46°16' W 072°38'  
2016-Jan-31 14:07N 46°04' W 073°06'610.0
2016-Jan-31 13:33N 46°06' W 072°59'9 8.9
2016-Jan-31 12:33N 46°12' W 072°50'9 9.3
2016-Jan-31 11:33N 46°16' W 072°38'8 8.1
2016-Jan-31 10:33N 46°22' W 072°29'1111.2
2016-Jan-31 09:33N 46°28' W 072°15'  
2016-Jan-27 04:11N 38°46' W 074°40'6 9.7
2016-Jan-27 03:33N 38°46' W 074°48'1010.0
2016-Jan-27 02:34N 38°46' W 075°00'9 9.0
2016-Jan-27 01:33N 38°54' W 075°05'1514.5
2016-Jan-27 00:33N 39°07' W 075°13'1616.3
2016-Jan-26 23:33N 39°20' W 075°26'1615.7
2016-Jan-26 22:33N 39°35' W 075°33'1313.3
2016-Jan-26 21:33N 39°47' W 075°27'10 9.6
2016-Jan-26 20:33N 39°51' W 075°15'7 6.3
2016-Jan-26 19:31N 39°54' W 075°08'0 0.1
2016-Jan-26 18:32N 39°54' W 075°08'0 0.0
2016-Jan-26 17:33N 39°54' W 075°08'0 0.0
2016-Jan-26 16:31N 39°54' W 075°08'0 0.0
2016-Jan-26 15:32N 39°54' W 075°08'0 0.0
2016-Jan-26 14:29N 39°54' W 075°08'0 0.2
2016-Jan-26 13:33N 39°54' W 075°08'0 0.2
2016-Jan-26 12:31N 39°54' W 075°08'0 0.0
2016-Jan-26 11:32N 39°54' W 075°08'0 0.0
2016-Jan-26 10:33N 39°54' W 075°08'0 0.0
2016-Jan-26 09:33N 39°54' W 075°08'0 0.0
2016-Jan-26 08:31N 39°54' W 075°08'0 0.0
2016-Jan-26 07:32N 39°54' W 075°08'0 0.0
2016-Jan-26 06:33N 39°54' W 075°08'0 0.0
2016-Jan-26 05:32N 39°54' W 075°08'0 0.0
2016-Jan-26 04:33N 39°54' W 075°08'2 1.5
2016-Jan-26 03:33N 39°53' W 075°10'10 9.8
2016-Jan-26 02:33N 39°50' W 075°22'1010.3
2016-Jan-26 01:33N 39°42' W 075°31'1312.9
2016-Jan-26 00:33N 39°30' W 075°33'1514.6
2016-Jan-25 23:33N 39°18' W 075°23'1615.6
2016-Jan-25 22:34N 39°05' W 075°11'1515.1
2016-Jan-25 21:34N 38°51' W 075°04'8 8.4
2016-Jan-25 20:33N 38°45' W 074°57'9 9.3
2016-Jan-25 19:32N 38°37' W 074°49'1712.9
2016-Jan-25 18:15N 38°26' W 074°34'  
Track history (hours):
 
Tides and Currents Weather Stations Pressure Air Temp Water Temp Dewpoint Dewpoint Depression Visibility Wind Speed Wind Dir Waves Ship Positions

Zim Mumbai

Last reported at 2016-Feb-03 13:33 UTC. Time now 2016-Feb-08 14:36 UTC.
Position N 46°34' W 072°06'.

Length 195.7 m; beam 32.3 m; draft 11.5 m.

Type: Ship (hazmat cat B). MMSI: 212160000.

Date/timePositionNaut miles runAvg speedWind from/ knotsBaromVisibWave heightAir tempDewpointWater temp
2016-Feb-03 13:33N 46°34' W 072°06'1312.6
2016-Feb-03 12:33N 46°26' W 072°20'10 9.6
2016-Feb-03 11:32N 46°20' W 072°32'0 0.0
2016-Feb-03 07:32N 46°20' W 072°32'6 6.4
2016-Feb-03 06:33N 46°16' W 072°38'  
2016-Jan-31 14:07N 46°04' W 073°06'610.0
2016-Jan-31 13:33N 46°06' W 072°59'9 8.9
2016-Jan-31 12:33N 46°12' W 072°50'9 9.3
2016-Jan-31 11:33N 46°16' W 072°38'8 8.1
2016-Jan-31 10:33N 46°22' W 072°29'1111.2
2016-Jan-31 09:33N 46°28' W 072°15'  
2016-Jan-27 04:11N 38°46' W 074°40'6 9.7
2016-Jan-27 03:33N 38°46' W 074°48'1010.0
2016-Jan-27 02:34N 38°46' W 075°00'9 9.0
2016-Jan-27 01:33N 38°54' W 075°05'1514.5
2016-Jan-27 00:33N 39°07' W 075°13'1616.3
2016-Jan-26 23:33N 39°20' W 075°26'1615.7
2016-Jan-26 22:33N 39°35' W 075°33'1313.3
2016-Jan-26 21:33N 39°47' W 075°27'10 9.6
2016-Jan-26 20:33N 39°51' W 075°15'7 6.3
2016-Jan-26 19:31N 39°54' W 075°08'0 0.1
2016-Jan-26 18:32N 39°54' W 075°08'0 0.0
2016-Jan-26 17:33N 39°54' W 075°08'0 0.0
2016-Jan-26 16:31N 39°54' W 075°08'0 0.0
2016-Jan-26 15:32N 39°54' W 075°08'0 0.0
2016-Jan-26 14:29N 39°54' W 075°08'0 0.2
2016-Jan-26 13:33N 39°54' W 075°08'0 0.2
2016-Jan-26 12:31N 39°54' W 075°08'0 0.0
2016-Jan-26 11:32N 39°54' W 075°08'0 0.0
2016-Jan-26 10:33N 39°54' W 075°08'0 0.0
2016-Jan-26 09:33N 39°54' W 075°08'0 0.0
2016-Jan-26 08:31N 39°54' W 075°08'0 0.0
2016-Jan-26 07:32N 39°54' W 075°08'0 0.0
2016-Jan-26 06:33N 39°54' W 075°08'0 0.0
2016-Jan-26 05:32N 39°54' W 075°08'0 0.0
2016-Jan-26 04:33N 39°54' W 075°08'2 1.5
2016-Jan-26 03:33N 39°53' W 075°10'10 9.8
2016-Jan-26 02:33N 39°50' W 075°22'1010.3
2016-Jan-26 01:33N 39°42' W 075°31'1312.9
2016-Jan-26 00:33N 39°30' W 075°33'1514.6
2016-Jan-25 23:33N 39°18' W 075°23'1615.6
2016-Jan-25 22:34N 39°05' W 075°11'1515.1
2016-Jan-25 21:34N 38°51' W 075°04'8 8.4
2016-Jan-25 20:33N 38°45' W 074°57'9 9.3
2016-Jan-25 19:32N 38°37' W 074°49'1712.9
2016-Jan-25 18:15N 38°26' W 074°34'  

Dump ship's entire track history